Time;durP1;ratioP1;P1;durP2;ratioP2;P2;SDS_P1;SDS_P2;PMS_P1;PMS_P2;Temp;Humidity;BMP_temperature;BMP_pressure;BME280_temperature;BME280_humidity;BME280_pressure;Samples;Min_cycle;Max_cycle;Signal;HPM_P1;HPM_P2
2022/09/30 00:04:27;;;;;;;0.73;0.50;;;;;;;;;;20993597;28;20213;-75
2022/09/30 00:14:29;;;;;;;0.53;0.37;;;;;;;;;;20992198;28;20225;-76
2022/09/30 00:24:31;;;;;;;0.70;0.40;;;;;;;;;;20973705;28;20247;-76
2022/09/30 00:34:32;;;;;;;0.70;0.50;;;;;;;;;;20973663;28;20700;-76
2022/09/30 00:44:41;;;;;;;0.73;0.60;;;;;;;;;;20991120;28;20209;-76
2022/09/30 00:54:43;;;;;;;0.50;0.40;;;;;;;;;;20990236;28;20217;-76
2022/09/30 01:04:45;;;;;;;1.17;0.40;;;;;;;;;;20989453;28;20267;-76
2022/09/30 01:14:50;;;;;;;0.40;0.30;;;;;;;;;;20970228;28;20212;-75
2022/09/30 01:25:10;;;;;;;0.30;0.30;;;;;;;;;;20986064;28;20217;-76
2022/09/30 01:35:19;;;;;;;0.50;0.33;;;;;;;;;;20952498;28;20282;-76
2022/09/30 01:45:20;;;;;;;1.03;0.50;;;;;;;;;;20968064;28;20209;-76
2022/09/30 01:55:39;;;;;;;0.80;0.40;;;10.90;99.90;;;;;;20946333;28;20217;-75
2022/09/30 02:05:44;;;;;;;0.47;0.37;;;;;;;;;;20985604;28;20181;-76
2022/09/30 02:15:48;;;;;;;0.70;0.40;;;;;;;;;;20984312;28;20173;-75
2022/09/30 02:25:54;;;;;;;0.77;0.40;;;;;;;;;;20982145;28;20221;-76
2022/09/30 02:36:05;;;;;;;0.40;0.40;;;;;;;;;;20979438;28;20201;-75
2022/09/30 02:46:10;;;;;;;0.80;0.30;;;;;;;;;;20982518;28;20282;-76
2022/09/30 02:56:28;;;;;;;0.43;0.30;;;;;;;;;;20986973;22;20707;-82
2022/09/30 03:06:32;;;;;;;1.30;0.60;;;;;;;;;;20914591;28;20320;-82
2022/09/30 03:16:55;;;;;;;0.60;0.50;;;10.60;99.90;;;;;;20855505;28;20222;-83
2022/09/30 03:27:25;;;;;;;0.37;0.37;;;10.40;99.90;;;;;;20904868;28;20280;-82
2022/09/30 03:37:32;;;;;;;0.93;0.50;;;;;;;;;;20869085;28;20206;-80
2022/09/30 03:47:37;;;;;;;0.93;0.50;;;;;;;;;;20901798;28;20280;-81
2022/09/30 03:57:38;;;;;;;0.47;0.30;;;;;;;;;;20918296;28;20272;-81
2022/09/30 04:07:40;;;;;;;2.20;0.63;;;;;;;;;;20884517;28;20945;-79
2022/09/30 04:17:42;;;;;;;0.43;0.33;;;;;;;;;;20916803;28;20210;-79
2022/09/30 04:27:47;;;;;;;1.03;0.50;;;;;;;;;;20900305;28;20752;-80
2022/09/30 04:37:49;;;;;;;0.60;0.40;;;;;;;;;;20916303;28;20224;-81
2022/09/30 04:47:51;;;;;;;0.60;0.40;;;;;;;;;;20936938;28;20226;-81
2022/09/30 04:57:53;;;;;;;2.20;0.63;;;;;;;;;;20881150;28;20217;-80
2022/09/30 05:08:04;;;;;;;2.90;0.97;;;;;;;;;;20884009;28;20256;-82
2022/09/30 05:18:05;;;;;;;1.80;0.90;;;;;;;;;;20853159;28;20244;-80
2022/09/30 05:28:08;;;;;;;1.23;0.80;;;;;;;;;;20913686;22;20263;-66
2022/09/30 05:38:10;;;;;;;5.03;0.60;;;;;;;;;;20914790;28;20286;-70
2022/09/30 05:48:13;;;;;;;2.20;1.40;;;;;;;;;;20954964;28;20290;-69
2022/09/30 05:58:15;;;;;;;1.87;0.80;;;;;;;;;;20917155;28;20586;-69
2022/09/30 06:08:17;;;;;;;1.77;0.70;;;;;;;;;;20951294;28;20229;-70
2022/09/30 06:18:20;;;;;;;1.30;0.70;;;;;;;;;;20935363;28;20216;-69
2022/09/30 06:28:22;;;;;;;2.37;1.07;;;9.70;99.90;;;;;;20934108;28;20910;-69
2022/09/30 06:38:26;;;;;;;1.00;0.80;;;;;;;;;;20930323;28;20221;-69
2022/09/30 06:48:28;;;;;;;0.70;0.60;;;;;;;;;;20910679;28;20614;-69
2022/09/30 06:58:31;;;;;;;1.57;1.03;;;;;;;;;;20951408;28;20225;-69
2022/09/30 07:08:35;;;;;;;6.47;3.50;;;10.00;99.90;;;;;;20973560;28;20237;-69
2022/09/30 07:18:38;;;;;;;2.30;1.60;;;;;;;;;;20974976;28;20270;-69
2022/09/30 07:28:40;;;;;;;1.80;1.13;;;;;;;;;;20961293;28;20286;-70
2022/09/30 07:38:42;;;;;;;2.03;1.40;;;;;;;;;;20971098;28;20205;-69
2022/09/30 07:48:50;;;;;;;1.87;1.33;;;;;;;;;;20953052;28;20274;-69
2022/09/30 07:58:59;;;;;;;4.33;1.47;;;;;;;;;;20965506;28;20255;-69
2022/09/30 08:09:01;;;;;;;2.50;1.83;;;;;;;;;;20963162;28;20217;-69
2022/09/30 08:19:03;;;;;;;2.20;1.70;;;12.10;99.90;;;;;;20934013;28;20757;-69
2022/09/30 08:29:06;;;;;;;2.80;2.00;;;;;;;;;;20971748;28;20225;-69
2022/09/30 08:39:09;;;;;;;3.30;1.90;;;;;;;;;;20947961;28;20206;-68
2022/09/30 08:49:18;;;;;;;2.83;1.77;;;;;;;;;;20969486;28;20224;-69
2022/09/30 08:59:23;;;;;;;5.40;2.10;;;;;;;;;;20978597;28;20221;-70
2022/09/30 09:10:02;;;;;;;2.70;1.77;;;12.70;99.90;;;;;;20966225;28;20228;-69
2022/09/30 09:20:19;;;;;;;3.07;1.93;;;13.00;99.90;;;;;;20910970;28;20213;-70
2022/09/30 09:30:27;;;;;;;3.10;2.10;;;;;;;;;;20940147;28;20225;-69
2022/09/30 09:40:56;;;;;;;3.40;2.10;;;13.40;99.90;;;;;;20942297;28;20213;-69
2022/09/30 09:51:03;;;;;;;4.10;2.23;;;;;;;;;;20935370;28;20579;-69
2022/09/30 10:01:30;;;;;;;4.70;2.40;;;;;;;;;;20952715;28;20227;-70
2022/09/30 10:11:32;;;;;;;4.10;2.20;;;;;;;;;;20932175;28;20217;-69
2022/09/30 10:21:34;;;;;;;3.93;2.33;;;;;;;;;;20913175;28;20270;-70
2022/09/30 10:31:42;;;;;;;3.50;2.17;;;14.40;99.90;;;;;;20935157;28;20280;-70
2022/09/30 10:41:44;;;;;;;6.97;2.30;;;;;;;;;;20912877;28;20252;-70
2022/09/30 10:51:46;;;;;;;4.50;2.50;;;;;;;;;;20927929;28;20213;-70
2022/09/30 11:01:54;;;;;;;3.10;1.87;;;14.90;99.90;;;;;;20942032;28;20555;-69
2022/09/30 11:12:22;;;;;;;2.57;1.70;;;15.00;99.90;;;;;;20983578;28;20236;-69
2022/09/30 11:22:41;;;;;;;3.33;1.90;;;;;;;;;;20965244;28;20225;-69
2022/09/30 11:33:16;;;;;;;2.10;1.57;;;15.50;99.90;;;;;;20949631;28;20271;-71
2022/09/30 11:43:45;;;;;;;2.80;1.40;;;;;;;;;;20946953;28;20209;-70
2022/09/30 11:53:54;;;;;;;1.80;1.23;;;;;;;;;;20948125;28;20282;-69
2022/09/30 12:04:05;;;;;;;4.30;1.57;;;15.70;99.90;;;;;;20963968;28;20243;-69
2022/09/30 12:14:15;;;;;;;2.30;0.90;;;16.20;99.90;;;;;;20963078;28;20596;-69
2022/09/30 12:24:37;;;;;;;2.10;1.10;;;;;;;;;;20962100;28;20757;-69
2022/09/30 12:34:40;;;;;;;1.20;0.90;;;;;;;;;;20977016;28;20586;-68
2022/09/30 12:44:51;;;;;;;2.20;1.27;;;;;;;;;;20976779;28;20258;-69
2022/09/30 12:54:56;;;;;;;1.90;1.10;;;;;;;;;;20948669;28;20228;-70
2022/09/30 13:05:17;;;;;;;1.07;0.70;;;;;;;;;;20939793;28;20239;-70
2022/09/30 13:15:29;;;;;;;1.57;0.80;;;;;;;;;;20956904;28;20255;-70
2022/09/30 13:25:50;;;;;;;0.73;0.53;;;;;;;;;;20935398;28;20529;-70
2022/09/30 13:35:53;;;;;;;1.80;0.60;;;;;;;;;;20869828;28;20651;-70
2022/09/30 13:45:56;;;;;;;2.67;0.80;;;;;;;;;;20887261;28;20218;-70
2022/09/30 13:55:59;;;;;;;2.40;0.60;;;;;;;;;;20871540;28;20712;-69
2022/09/30 14:06:07;;;;;;;1.13;0.70;;;;;;;;;;20887377;28;20222;-70
2022/09/30 14:16:39;;;;;;;1.53;0.50;;;15.40;99.90;;;;;;20886415;28;20765;-70
2022/09/30 14:26:47;;;;;;;0.90;0.60;;;;;;;;;;20869725;28;20210;-70
2022/09/30 14:36:52;;;;;;;0.67;0.50;;;15.90;99.90;;;;;;20886350;28;20193;-70
2022/09/30 14:47:00;;;;;;;1.23;0.70;;;16.00;99.90;;;;;;20852833;28;20221;-70
2022/09/30 14:57:03;;;;;;;1.53;0.80;;;;;;;;;;20869298;28;20210;-70
2022/09/30 15:07:09;;;;;;;0.90;0.60;;;;;;;;;;20899815;28;20226;-70
2022/09/30 15:17:17;;;;;;;1.33;0.77;;;;;;;;;;20935450;28;20247;-70
2022/09/30 15:27:21;;;;;;;1.40;0.63;;;;;;;;;;20932413;28;20216;-69
2022/09/30 15:37:25;;;;;;;0.90;0.67;;;;;;;;;;20972933;28;20233;-69
2022/09/30 15:47:27;;;;;;;7.17;1.00;;;;;;;;;;20959123;28;20251;-69
2022/09/30 15:57:56;;;;;;;2.87;0.90;;;;;;;;;;20962002;28;20255;-69
2022/09/30 16:07:58;;;;;;;2.03;0.90;;;;;;;;;;20942739;28;20691;-68
2022/09/30 16:18:00;;;;;;;2.80;0.87;;;;;;;;;;20947035;28;20317;-69
2022/09/30 16:28:12;;;;;;;1.00;0.77;;;;;;;;;;20960220;28;20275;-69
2022/09/30 16:38:16;;;;;;;1.43;0.70;;;14.90;99.90;;;;;;20958240;28;20295;-69
2022/09/30 16:48:20;;;;;;;1.13;0.70;;;;;;;;;;20940364;28;20597;-68
2022/09/30 16:58:22;;;;;;;1.40;0.70;;;14.70;99.90;;;;;;20942239;28;20213;-68
2022/09/30 17:08:23;;;;;;;1.23;0.77;;;;;;;;;;20941166;28;20278;-69
2022/09/30 17:18:25;;;;;;;1.67;0.80;;;;;;;;;;20938277;28;20703;-69
2022/09/30 17:28:28;;;;;;;1.10;0.70;;;;;;;;;;20954385;28;20241;-69
2022/09/30 17:38:29;;;;;;;1.23;0.83;;;;;;;;;;20933780;28;20209;-69
2022/09/30 17:48:31;;;;;;;1.57;0.70;;;;;;;;;;20919903;28;20217;-68
2022/09/30 17:58:33;;;;;;;0.90;0.70;;;;;;;;;;20935292;28;20259;-69
2022/09/30 18:08:35;;;;;;;1.07;0.77;;;;;;;;;;20953608;28;20221;-69
2022/09/30 18:18:37;;;;;;;2.37;0.90;;;;;;;;;;20968079;28;20863;-69
2022/09/30 18:28:39;;;;;;;2.87;1.13;;;;;;;;;;20935969;28;20270;-69
2022/09/30 18:38:41;;;;;;;2.93;1.20;;;;;;;;;;20951295;28;20251;-69
2022/09/30 18:48:44;;;;;;;1.00;0.83;;;;;;;;;;20951680;28;20217;-69
2022/09/30 18:58:48;;;;;;;1.70;1.10;;;;;;;;;;20934549;28;20209;-69
2022/09/30 19:08:51;;;;;;;2.20;1.27;;;;;;;;;;20962845;28;20237;-69
2022/09/30 19:18:54;;;;;;;1.13;0.80;;;;;;;;;;20961371;28;20338;-68
2022/09/30 19:28:56;;;;;;;1.30;0.77;;;13.30;99.90;;;;;;20947342;28;20624;-69
2022/09/30 19:39:01;;;;;;;2.07;0.80;;;;;;;;;;20912293;28;20575;-69
2022/09/30 19:49:03;;;;;;;1.50;0.73;;;;;;;;;;20948555;28;20282;-69
2022/09/30 19:59:05;;;;;;;1.03;0.80;;;;;;;;;;20944578;28;20221;-69
2022/09/30 20:09:07;;;;;;;1.63;0.93;;;;;;;;;;20958787;28;20237;-69
2022/09/30 20:19:12;;;;;;;3.07;1.37;;;12.80;99.90;;;;;;20960037;28;20221;-69
2022/09/30 20:29:18;;;;;;;1.50;1.33;;;;;;;;;;20961381;28;20600;-68
2022/09/30 20:39:22;;;;;;;1.47;1.00;;;12.60;99.90;;;;;;20960876;28;20221;-69
2022/09/30 20:49:24;;;;;;;3.93;2.20;;;;;;;;;;20943547;28;20221;-69
2022/09/30 20:59:26;;;;;;;2.50;1.60;;;;;;;;;;20943074;28;20282;-69
2022/09/30 21:09:30;;;;;;;2.30;1.37;;;;;;;;;;20957824;28;20799;-69
2022/09/30 21:19:32;;;;;;;1.43;1.00;;;;;;;;;;20941258;28;20213;-69
2022/09/30 21:29:34;;;;;;;2.10;1.23;;;;;;;;;;20946071;28;20213;-70
2022/09/30 21:39:46;;;;;;;2.40;1.47;;;;;;;;;;20962545;28;20607;-69
2022/09/30 21:49:52;;;;;;;1.20;0.90;;;;;;;;;;20965762;22;20229;-70
2022/09/30 21:59:54;;;;;;;1.27;0.90;;;;;;;;;;20902408;28;20213;-70
2022/09/30 22:09:55;;;;;;;1.50;1.07;;;;;;;;;;20900961;28;20291;-70
2022/09/30 22:19:57;;;;;;;2.23;1.00;;;;;;;;;;20882703;28;20218;-71
2022/09/30 22:29:59;;;;;;;1.87;1.10;;;;;;;;;;20900770;28;20629;-70
2022/09/30 22:40:00;;;;;;;1.33;1.20;;;;;;;;;;20899773;28;20609;-70
2022/09/30 22:50:03;;;;;;;1.10;0.70;;;;;;;;;;20898488;28;20264;-70
2022/09/30 23:00:05;;;;;;;2.07;0.93;;;;;;;;;;20899852;28;20245;-70
2022/09/30 23:10:08;;;;;;;1.37;0.77;;;;;;;;;;20898817;28;20225;-70
2022/09/30 23:20:09;;;;;;;1.67;1.27;;;;;;;;;;20897747;28;20615;-70
2022/09/30 23:30:11;;;;;;;1.40;1.10;;;;;;;;;;20898738;28;20221;-70
2022/09/30 23:40:13;;;;;;;2.10;1.10;;;;;;;;;;20897691;28;20252;-70
2022/09/30 23:50:15;;;;;;;1.73;1.10;;;;;;;;;;20900659;28;20241;-70
